sensor_id;sensor_type;location;lat;lon;timestamp;temperature;humidity
45643;DHT22;31358;46.008;11.144;2022-12-29T00:01:36;3.70;99.90
45643;DHT22;31358;46.008;11.144;2022-12-29T00:04:02;3.70;99.90
45643;DHT22;31358;46.008;11.144;2022-12-29T00:06:29;3.80;99.90
45643;DHT22;31358;46.008;11.144;2022-12-29T00:08:54;3.80;99.90
45643;DHT22;31358;46.008;11.144;2022-12-29T00:11:26;3.90;99.90
45643;DHT22;31358;46.008;11.144;2022-12-29T00:13:53;3.80;99.90
45643;DHT22;31358;46.008;11.144;2022-12-29T00:16:39;3.80;99.90
45643;DHT22;31358;46.008;11.144;2022-12-29T00:19:05;3.60;99.90
45643;DHT22;31358;46.008;11.144;2022-12-29T00:21:31;3.50;99.90
45643;DHT22;31358;46.008;11.144;2022-12-29T00:24:20;3.50;99.90
45643;DHT22;31358;46.008;11.144;2022-12-29T00:29:48;3.50;99.90
45643;DHT22;31358;46.008;11.144;2022-12-29T00:32:33;3.40;99.90
45643;DHT22;31358;46.008;11.144;2022-12-29T00:35:40;3.50;99.90
45643;DHT22;31358;46.008;11.144;2022-12-29T00:38:09;3.30;99.90
45643;DHT22;31358;46.008;11.144;2022-12-29T00:40:54;3.20;99.90
45643;DHT22;31358;46.008;11.144;2022-12-29T00:43:38;3.30;99.90
45643;DHT22;31358;46.008;11.144;2022-12-29T00:46:23;3.60;99.90
45643;DHT22;31358;46.008;11.144;2022-12-29T00:48:48;3.80;99.90
45643;DHT22;31358;46.008;11.144;2022-12-29T00:51:32;3.80;99.90
45643;DHT22;31358;46.008;11.144;2022-12-29T00:53:58;3.80;99.90
45643;DHT22;31358;46.008;11.144;2022-12-29T00:56:23;3.80;99.90
45643;DHT22;31358;46.008;11.144;2022-12-29T00:58:49;3.80;99.90
45643;DHT22;31358;46.008;11.144;2022-12-29T01:01:15;3.70;99.90
45643;DHT22;31358;46.008;11.144;2022-12-29T01:03:41;3.70;99.90
45643;DHT22;31358;46.008;11.144;2022-12-29T01:06:08;3.60;99.90
45643;DHT22;31358;46.008;11.144;2022-12-29T01:08:35;3.40;99.90
45643;DHT22;31358;46.008;11.144;2022-12-29T01:11:02;3.40;99.90
45643;DHT22;31358;46.008;11.144;2022-12-29T01:13:29;3.30;99.90
45643;DHT22;31358;46.008;11.144;2022-12-29T01:15:55;3.20;99.90
45643;DHT22;31358;46.008;11.144;2022-12-29T01:18:21;3.00;99.90
45643;DHT22;31358;46.008;11.144;2022-12-29T01:20:47;2.90;99.90
45643;DHT22;31358;46.008;11.144;2022-12-29T01:23:14;2.80;99.90
45643;DHT22;31358;46.008;11.144;2022-12-29T01:25:39;2.80;99.90
45643;DHT22;31358;46.008;11.144;2022-12-29T01:28:05;2.80;99.90
45643;DHT22;31358;46.008;11.144;2022-12-29T01:30:34;2.90;99.90
45643;DHT22;31358;46.008;11.144;2022-12-29T01:32:59;2.80;99.90
45643;DHT22;31358;46.008;11.144;2022-12-29T01:35:25;3.00;99.90
45643;DHT22;31358;46.008;11.144;2022-12-29T01:37:51;3.10;99.90
45643;DHT22;31358;46.008;11.144;2022-12-29T01:40:17;3.20;99.90
45643;DHT22;31358;46.008;11.144;2022-12-29T01:42:42;3.30;99.90
45643;DHT22;31358;46.008;11.144;2022-12-29T01:45:13;3.30;99.90
45643;DHT22;31358;46.008;11.144;2022-12-29T01:47:46;3.20;99.90
45643;DHT22;31358;46.008;11.144;2022-12-29T01:53:05;3.30;99.90
45643;DHT22;31358;46.008;11.144;2022-12-29T01:55:44;3.30;99.90
45643;DHT22;31358;46.008;11.144;2022-12-29T01:58:13;3.50;99.90
45643;DHT22;31358;46.008;11.144;2022-12-29T02:00:40;3.60;99.90
45643;DHT22;31358;46.008;11.144;2022-12-29T02:03:06;3.70;99.90
45643;DHT22;31358;46.008;11.144;2022-12-29T02:05:37;3.60;99.90
45643;DHT22;31358;46.008;11.144;2022-12-29T02:08:04;3.50;99.90
45643;DHT22;31358;46.008;11.144;2022-12-29T02:10:31;3.50;99.90
45643;DHT22;31358;46.008;11.144;2022-12-29T02:12:58;3.50;99.90
45643;DHT22;31358;46.008;11.144;2022-12-29T02:21:29;3.30;99.90
45643;DHT22;31358;46.008;11.144;2022-12-29T02:35:04;3.70;99.90
45643;DHT22;31358;46.008;11.144;2022-12-29T02:40:39;3.40;99.90
45643;DHT22;31358;46.008;11.144;2022-12-29T02:43:22;3.30;99.90
45643;DHT22;31358;46.008;11.144;2022-12-29T02:46:24;3.30;99.90
45643;DHT22;31358;46.008;11.144;2022-12-29T02:49:11;3.40;99.90
45643;DHT22;31358;46.008;11.144;2022-12-29T02:54:18;3.30;99.90
45643;DHT22;31358;46.008;11.144;2022-12-29T02:57:03;3.30;99.90
45643;DHT22;31358;46.008;11.144;2022-12-29T02:59:29;3.40;99.90
45643;DHT22;31358;46.008;11.144;2022-12-29T03:07:50;3.20;99.90
45643;DHT22;31358;46.008;11.144;2022-12-29T03:18:50;3.00;99.90
45643;DHT22;31358;46.008;11.144;2022-12-29T03:21:27;3.20;99.90
45643;DHT22;31358;46.008;11.144;2022-12-29T03:24:17;3.20;99.90
45643;DHT22;31358;46.008;11.144;2022-12-29T03:26:45;3.30;99.90
45643;DHT22;31358;46.008;11.144;2022-12-29T03:29:13;3.20;99.90
45643;DHT22;31358;46.008;11.144;2022-12-29T03:31:41;2.90;99.90
45643;DHT22;31358;46.008;11.144;2022-12-29T03:34:08;2.80;99.90
45643;DHT22;31358;46.008;11.144;2022-12-29T03:36:49;2.90;99.90
45643;DHT22;31358;46.008;11.144;2022-12-29T03:39:20;2.90;99.90
45643;DHT22;31358;46.008;11.144;2022-12-29T03:41:49;3.00;99.90
45643;DHT22;31358;46.008;11.144;2022-12-29T03:44:16;2.90;99.90
45643;DHT22;31358;46.008;11.144;2022-12-29T03:46:41;3.00;99.90
45643;DHT22;31358;46.008;11.144;2022-12-29T03:49:07;3.00;99.90
45643;DHT22;31358;46.008;11.144;2022-12-29T03:51:33;3.00;99.90
45643;DHT22;31358;46.008;11.144;2022-12-29T03:53:59;2.80;99.90
45643;DHT22;31358;46.008;11.144;2022-12-29T03:56:24;2.90;99.90
45643;DHT22;31358;46.008;11.144;2022-12-29T03:58:50;2.90;99.90
45643;DHT22;31358;46.008;11.144;2022-12-29T04:01:16;2.90;99.90
45643;DHT22;31358;46.008;11.144;2022-12-29T04:03:41;2.70;99.90
45643;DHT22;31358;46.008;11.144;2022-12-29T04:06:07;2.60;99.90
45643;DHT22;31358;46.008;11.144;2022-12-29T04:08:33;2.60;99.90
45643;DHT22;31358;46.008;11.144;2022-12-29T04:10:58;2.50;99.90
45643;DHT22;31358;46.008;11.144;2022-12-29T04:13:24;2.50;99.90
45643;DHT22;31358;46.008;11.144;2022-12-29T04:15:50;2.50;99.90
45643;DHT22;31358;46.008;11.144;2022-12-29T04:18:16;2.50;99.90
45643;DHT22;31358;46.008;11.144;2022-12-29T04:20:41;2.50;99.90
45643;DHT22;31358;46.008;11.144;2022-12-29T04:23:25;2.60;99.90
45643;DHT22;31358;46.008;11.144;2022-12-29T04:25:51;2.70;99.90
45643;DHT22;31358;46.008;11.144;2022-12-29T04:28:17;2.60;99.90
45643;DHT22;31358;46.008;11.144;2022-12-29T04:30:43;2.70;99.90
45643;DHT22;31358;46.008;11.144;2022-12-29T04:33:09;2.60;99.90
45643;DHT22;31358;46.008;11.144;2022-12-29T04:35:35;2.60;99.90
45643;DHT22;31358;46.008;11.144;2022-12-29T04:38:01;2.60;99.90
45643;DHT22;31358;46.008;11.144;2022-12-29T04:40:27;2.60;99.90
45643;DHT22;31358;46.008;11.144;2022-12-29T04:42:52;2.80;99.90
45643;DHT22;31358;46.008;11.144;2022-12-29T04:45:18;2.90;99.90
45643;DHT22;31358;46.008;11.144;2022-12-29T04:47:44;2.80;99.90
45643;DHT22;31358;46.008;11.144;2022-12-29T04:50:09;2.70;99.90
45643;DHT22;31358;46.008;11.144;2022-12-29T04:52:35;2.80;99.90
45643;DHT22;31358;46.008;11.144;2022-12-29T04:55:01;2.80;99.90
45643;DHT22;31358;46.008;11.144;2022-12-29T04:57:27;2.60;99.90
45643;DHT22;31358;46.008;11.144;2022-12-29T04:59:53;2.70;99.90
45643;DHT22;31358;46.008;11.144;2022-12-29T05:02:19;2.70;99.90
45643;DHT22;31358;46.008;11.144;2022-12-29T05:04:45;2.50;99.90
45643;DHT22;31358;46.008;11.144;2022-12-29T05:07:11;2.50;99.90
45643;DHT22;31358;46.008;11.144;2022-12-29T05:09:37;2.50;99.90
45643;DHT22;31358;46.008;11.144;2022-12-29T05:12:03;2.50;99.90
45643;DHT22;31358;46.008;11.144;2022-12-29T05:14:28;2.60;99.90
45643;DHT22;31358;46.008;11.144;2022-12-29T05:16:54;2.50;99.90
45643;DHT22;31358;46.008;11.144;2022-12-29T05:19:20;2.50;99.90
45643;DHT22;31358;46.008;11.144;2022-12-29T05:21:45;2.60;99.90
45643;DHT22;31358;46.008;11.144;2022-12-29T05:24:11;2.60;99.90
45643;DHT22;31358;46.008;11.144;2022-12-29T05:26:37;2.60;99.90
45643;DHT22;31358;46.008;11.144;2022-12-29T05:29:02;2.60;99.90
45643;DHT22;31358;46.008;11.144;2022-12-29T05:31:28;2.70;99.90
45643;DHT22;31358;46.008;11.144;2022-12-29T05:33:54;2.80;99.90
45643;DHT22;31358;46.008;11.144;2022-12-29T05:36:19;2.90;99.90
45643;DHT22;31358;46.008;11.144;2022-12-29T05:38:45;2.90;99.90
45643;DHT22;31358;46.008;11.144;2022-12-29T05:41:11;3.00;99.90
45643;DHT22;31358;46.008;11.144;2022-12-29T05:43:36;3.10;99.90
45643;DHT22;31358;46.008;11.144;2022-12-29T05:46:03;3.10;99.90
45643;DHT22;31358;46.008;11.144;2022-12-29T05:48:29;3.10;99.90
45643;DHT22;31358;46.008;11.144;2022-12-29T05:50:54;3.10;99.90
45643;DHT22;31358;46.008;11.144;2022-12-29T05:53:20;3.00;99.90
45643;DHT22;31358;46.008;11.144;2022-12-29T05:55:47;3.10;99.90
45643;DHT22;31358;46.008;11.144;2022-12-29T05:58:13;3.10;99.90
45643;DHT22;31358;46.008;11.144;2022-12-29T06:00:39;3.10;99.90
45643;DHT22;31358;46.008;11.144;2022-12-29T06:03:04;3.10;99.90
45643;DHT22;31358;46.008;11.144;2022-12-29T06:05:30;3.00;99.90
45643;DHT22;31358;46.008;11.144;2022-12-29T06:07:56;3.10;99.90
45643;DHT22;31358;46.008;11.144;2022-12-29T06:10:21;3.00;99.90
45643;DHT22;31358;46.008;11.144;2022-12-29T06:12:47;3.00;99.90
45643;DHT22;31358;46.008;11.144;2022-12-29T06:15:13;3.00;99.90
45643;DHT22;31358;46.008;11.144;2022-12-29T06:17:39;3.10;99.90
45643;DHT22;31358;46.008;11.144;2022-12-29T06:20:06;3.00;99.90
45643;DHT22;31358;46.008;11.144;2022-12-29T06:22:32;3.00;99.90
45643;DHT22;31358;46.008;11.144;2022-12-29T06:24:57;3.10;99.90
45643;DHT22;31358;46.008;11.144;2022-12-29T06:27:24;3.20;99.90
45643;DHT22;31358;46.008;11.144;2022-12-29T06:29:49;3.10;99.90
45643;DHT22;31358;46.008;11.144;2022-12-29T06:32:15;3.10;99.90
45643;DHT22;31358;46.008;11.144;2022-12-29T06:34:41;3.20;99.90
45643;DHT22;31358;46.008;11.144;2022-12-29T06:37:06;3.20;99.90
45643;DHT22;31358;46.008;11.144;2022-12-29T06:39:32;3.10;99.90
45643;DHT22;31358;46.008;11.144;2022-12-29T06:41:58;2.90;99.90
45643;DHT22;31358;46.008;11.144;2022-12-29T06:44:23;2.80;99.90
45643;DHT22;31358;46.008;11.144;2022-12-29T06:46:50;2.80;99.90
45643;DHT22;31358;46.008;11.144;2022-12-29T06:49:16;2.90;99.90
45643;DHT22;31358;46.008;11.144;2022-12-29T06:51:41;2.90;99.90
45643;DHT22;31358;46.008;11.144;2022-12-29T06:54:07;2.90;99.90
45643;DHT22;31358;46.008;11.144;2022-12-29T06:56:33;2.90;99.90
45643;DHT22;31358;46.008;11.144;2022-12-29T06:58:58;2.80;99.90
45643;DHT22;31358;46.008;11.144;2022-12-29T07:01:27;2.80;99.90
45643;DHT22;31358;46.008;11.144;2022-12-29T07:03:53;2.80;99.90
45643;DHT22;31358;46.008;11.144;2022-12-29T07:06:19;2.70;99.90
45643;DHT22;31358;46.008;11.144;2022-12-29T07:08:44;2.80;99.90
45643;DHT22;31358;46.008;11.144;2022-12-29T07:11:10;2.70;99.90
45643;DHT22;31358;46.008;11.144;2022-12-29T07:13:36;2.70;99.90
45643;DHT22;31358;46.008;11.144;2022-12-29T07:16:09;2.70;99.90
45643;DHT22;31358;46.008;11.144;2022-12-29T07:18:35;2.60;99.90
45643;DHT22;31358;46.008;11.144;2022-12-29T07:21:01;2.60;99.90
45643;DHT22;31358;46.008;11.144;2022-12-29T07:23:27;2.60;99.90
45643;DHT22;31358;46.008;11.144;2022-12-29T07:26:04;2.70;99.90
45643;DHT22;31358;46.008;11.144;2022-12-29T07:28:30;2.70;99.90
45643;DHT22;31358;46.008;11.144;2022-12-29T07:30:58;2.80;99.90
45643;DHT22;31358;46.008;11.144;2022-12-29T07:33:24;2.70;99.90
45643;DHT22;31358;46.008;11.144;2022-12-29T07:35:50;2.80;99.90
45643;DHT22;31358;46.008;11.144;2022-12-29T07:38:16;2.80;99.90
45643;DHT22;31358;46.008;11.144;2022-12-29T07:40:42;2.80;99.90
45643;DHT22;31358;46.008;11.144;2022-12-29T07:43:08;2.90;99.90
45643;DHT22;31358;46.008;11.144;2022-12-29T07:45:34;3.00;99.90
45643;DHT22;31358;46.008;11.144;2022-12-29T07:47:59;3.00;99.90
45643;DHT22;31358;46.008;11.144;2022-12-29T07:50:25;2.90;99.90
45643;DHT22;31358;46.008;11.144;2022-12-29T07:52:50;2.90;99.90
45643;DHT22;31358;46.008;11.144;2022-12-29T07:55:16;3.00;99.90
45643;DHT22;31358;46.008;11.144;2022-12-29T07:57:42;3.00;99.90
45643;DHT22;31358;46.008;11.144;2022-12-29T08:00:09;2.90;99.90
45643;DHT22;31358;46.008;11.144;2022-12-29T08:02:35;3.00;99.90
45643;DHT22;31358;46.008;11.144;2022-12-29T08:05:01;2.90;99.90
45643;DHT22;31358;46.008;11.144;2022-12-29T08:07:27;3.00;99.90
45643;DHT22;31358;46.008;11.144;2022-12-29T08:09:52;3.00;99.90
45643;DHT22;31358;46.008;11.144;2022-12-29T08:12:18;2.90;99.90
45643;DHT22;31358;46.008;11.144;2022-12-29T08:14:44;2.90;99.90
45643;DHT22;31358;46.008;11.144;2022-12-29T08:17:10;2.90;99.90
45643;DHT22;31358;46.008;11.144;2022-12-29T08:19:36;2.80;99.90
45643;DHT22;31358;46.008;11.144;2022-12-29T08:22:02;3.00;99.90
45643;DHT22;31358;46.008;11.144;2022-12-29T08:24:28;3.10;99.90
45643;DHT22;31358;46.008;11.144;2022-12-29T08:26:53;3.10;99.90
45643;DHT22;31358;46.008;11.144;2022-12-29T08:29:19;3.10;99.90
45643;DHT22;31358;46.008;11.144;2022-12-29T08:31:46;3.30;99.90
45643;DHT22;31358;46.008;11.144;2022-12-29T08:34:12;3.40;99.90
45643;DHT22;31358;46.008;11.144;2022-12-29T08:36:38;3.40;99.90
45643;DHT22;31358;46.008;11.144;2022-12-29T08:39:04;3.40;99.90
45643;DHT22;31358;46.008;11.144;2022-12-29T08:41:29;3.50;99.90
45643;DHT22;31358;46.008;11.144;2022-12-29T08:43:55;3.60;99.90
45643;DHT22;31358;46.008;11.144;2022-12-29T08:46:21;3.60;99.90
45643;DHT22;31358;46.008;11.144;2022-12-29T08:48:47;3.50;99.90
45643;DHT22;31358;46.008;11.144;2022-12-29T08:51:12;3.60;99.90
45643;DHT22;31358;46.008;11.144;2022-12-29T08:53:38;3.70;99.90
45643;DHT22;31358;46.008;11.144;2022-12-29T08:56:04;3.80;99.90
45643;DHT22;31358;46.008;11.144;2022-12-29T08:58:30;3.90;99.90
45643;DHT22;31358;46.008;11.144;2022-12-29T09:00:57;3.90;99.90
45643;DHT22;31358;46.008;11.144;2022-12-29T09:03:24;4.00;99.90
45643;DHT22;31358;46.008;11.144;2022-12-29T09:05:51;4.10;99.90
45643;DHT22;31358;46.008;11.144;2022-12-29T09:08:18;4.10;99.90
45643;DHT22;31358;46.008;11.144;2022-12-29T09:10:44;4.00;99.90
45643;DHT22;31358;46.008;11.144;2022-12-29T09:13:11;4.00;99.90
45643;DHT22;31358;46.008;11.144;2022-12-29T09:15:37;4.10;99.90
45643;DHT22;31358;46.008;11.144;2022-12-29T09:18:02;3.90;99.90
45643;DHT22;31358;46.008;11.144;2022-12-29T09:20:28;3.80;99.90
45643;DHT22;31358;46.008;11.144;2022-12-29T09:22:54;3.80;99.90
45643;DHT22;31358;46.008;11.144;2022-12-29T09:25:20;3.90;99.90
45643;DHT22;31358;46.008;11.144;2022-12-29T09:27:46;3.90;99.90
45643;DHT22;31358;46.008;11.144;2022-12-29T09:30:13;4.00;99.90
45643;DHT22;31358;46.008;11.144;2022-12-29T09:32:40;4.10;99.90
45643;DHT22;31358;46.008;11.144;2022-12-29T09:35:06;4.00;99.90
45643;DHT22;31358;46.008;11.144;2022-12-29T09:37:32;4.00;99.90
45643;DHT22;31358;46.008;11.144;2022-12-29T09:39:57;4.00;99.90
45643;DHT22;31358;46.008;11.144;2022-12-29T09:42:45;3.90;99.90
45643;DHT22;31358;46.008;11.144;2022-12-29T09:45:18;4.00;99.90
45643;DHT22;31358;46.008;11.144;2022-12-29T09:47:46;4.10;99.90
45643;DHT22;31358;46.008;11.144;2022-12-29T09:50:33;4.00;99.90
45643;DHT22;31358;46.008;11.144;2022-12-29T09:55:44;3.80;99.90
45643;DHT22;31358;46.008;11.144;2022-12-29T09:58:17;3.80;99.90
45643;DHT22;31358;46.008;11.144;2022-12-29T10:03:17;3.90;99.90
45643;DHT22;31358;46.008;11.144;2022-12-29T10:17:27;3.80;99.90
45643;DHT22;31358;46.008;11.144;2022-12-29T10:25:34;3.80;99.90
45643;DHT22;31358;46.008;11.144;2022-12-29T10:28:06;3.80;99.90
45643;DHT22;31358;46.008;11.144;2022-12-29T10:30:36;3.80;99.90
45643;DHT22;31358;46.008;11.144;2022-12-29T10:33:06;3.90;99.90
45643;DHT22;31358;46.008;11.144;2022-12-29T10:35:35;3.90;99.90
45643;DHT22;31358;46.008;11.144;2022-12-29T10:38:09;4.00;99.90
45643;DHT22;31358;46.008;11.144;2022-12-29T10:43:31;3.90;99.90
45643;DHT22;31358;46.008;11.144;2022-12-29T10:45:59;3.90;99.90
45643;DHT22;31358;46.008;11.144;2022-12-29T10:48:30;3.80;99.90
45643;DHT22;31358;46.008;11.144;2022-12-29T10:50:57;3.90;99.90
45643;DHT22;31358;46.008;11.144;2022-12-29T10:53:55;4.00;99.90
45643;DHT22;31358;46.008;11.144;2022-12-29T10:56:29;4.10;99.90
45643;DHT22;31358;46.008;11.144;2022-12-29T10:59:00;4.20;99.90
45643;DHT22;31358;46.008;11.144;2022-12-29T11:01:34;4.30;99.90
45643;DHT22;31358;46.008;11.144;2022-12-29T11:04:10;4.40;99.90
45643;DHT22;31358;46.008;11.144;2022-12-29T11:06:43;4.40;99.90
45643;DHT22;31358;46.008;11.144;2022-12-29T11:09:14;4.40;99.90
45643;DHT22;31358;46.008;11.144;2022-12-29T11:11:41;4.40;99.90
45643;DHT22;31358;46.008;11.144;2022-12-29T11:14:17;4.40;99.90
45643;DHT22;31358;46.008;11.144;2022-12-29T11:16:43;4.40;99.90
45643;DHT22;31358;46.008;11.144;2022-12-29T11:19:25;4.50;99.90
45643;DHT22;31358;46.008;11.144;2022-12-29T11:21:51;4.50;99.90
45643;DHT22;31358;46.008;11.144;2022-12-29T11:26:51;4.70;99.90
45643;DHT22;31358;46.008;11.144;2022-12-29T11:29:27;4.70;99.90
45643;DHT22;31358;46.008;11.144;2022-12-29T11:31:56;4.70;99.90
45643;DHT22;31358;46.008;11.144;2022-12-29T11:40:26;4.70;99.90
45643;DHT22;31358;46.008;11.144;2022-12-29T11:42:58;4.60;99.90
45643;DHT22;31358;46.008;11.144;2022-12-29T11:45:31;4.70;99.90
45643;DHT22;31358;46.008;11.144;2022-12-29T11:48:01;4.80;99.90
45643;DHT22;31358;46.008;11.144;2022-12-29T11:50:33;4.80;99.90
45643;DHT22;31358;46.008;11.144;2022-12-29T11:53:03;4.80;99.90
45643;DHT22;31358;46.008;11.144;2022-12-29T11:55:31;4.90;99.90
45643;DHT22;31358;46.008;11.144;2022-12-29T11:58:00;5.00;99.90
45643;DHT22;31358;46.008;11.144;2022-12-29T12:00:29;5.00;99.90
45643;DHT22;31358;46.008;11.144;2022-12-29T12:03:16;5.10;99.90
45643;DHT22;31358;46.008;11.144;2022-12-29T12:05:54;5.20;99.90
45643;DHT22;31358;46.008;11.144;2022-12-29T12:10:58;5.20;99.90
45643;DHT22;31358;46.008;11.144;2022-12-29T12:14:01;5.30;99.90
45643;DHT22;31358;46.008;11.144;2022-12-29T12:16:55;5.40;99.90
45643;DHT22;31358;46.008;11.144;2022-12-29T12:19:32;5.50;99.90
45643;DHT22;31358;46.008;11.144;2022-12-29T12:22:27;5.60;99.90
45643;DHT22;31358;46.008;11.144;2022-12-29T12:24:59;5.70;99.90
45643;DHT22;31358;46.008;11.144;2022-12-29T12:27:31;5.90;99.90
45643;DHT22;31358;46.008;11.144;2022-12-29T12:30:21;6.10;99.90
45643;DHT22;31358;46.008;11.144;2022-12-29T12:33:06;6.10;99.90
45643;DHT22;31358;46.008;11.144;2022-12-29T12:44:12;6.00;99.90
45643;DHT22;31358;46.008;11.144;2022-12-29T12:57:13;6.30;99.90
45643;DHT22;31358;46.008;11.144;2022-12-29T13:05:24;6.60;99.90
45643;DHT22;31358;46.008;11.144;2022-12-29T13:10:55;6.50;99.90
45643;DHT22;31358;46.008;11.144;2022-12-29T13:19:23;6.30;99.90
45643;DHT22;31358;46.008;11.144;2022-12-29T13:30:19;6.20;99.90
45643;DHT22;31358;46.008;11.144;2022-12-29T13:38:40;6.20;99.90
45643;DHT22;31358;46.008;11.144;2022-12-29T13:41:21;6.20;99.90
45643;DHT22;31358;46.008;11.144;2022-12-29T13:43:50;6.20;99.90
45643;DHT22;31358;46.008;11.144;2022-12-29T13:46:29;6.20;99.90
45643;DHT22;31358;46.008;11.144;2022-12-29T13:49:04;6.30;99.90
45643;DHT22;31358;46.008;11.144;2022-12-29T13:51:33;6.30;99.90
45643;DHT22;31358;46.008;11.144;2022-12-29T13:54:05;6.30;99.90
45643;DHT22;31358;46.008;11.144;2022-12-29T13:56:40;6.20;99.90
45643;DHT22;31358;46.008;11.144;2022-12-29T14:04:16;6.20;99.90
45643;DHT22;31358;46.008;11.144;2022-12-29T14:06:47;6.20;99.90
45643;DHT22;31358;46.008;11.144;2022-12-29T14:12:53;6.10;99.90
45643;DHT22;31358;46.008;11.144;2022-12-29T14:17:39;6.20;99.90
45643;DHT22;31358;46.008;11.144;2022-12-29T14:20:15;6.20;99.90
45643;DHT22;31358;46.008;11.144;2022-12-29T14:22:59;6.20;99.90
45643;DHT22;31358;46.008;11.144;2022-12-29T14:28:45;6.40;99.90
45643;DHT22;31358;46.008;11.144;2022-12-29T14:33:41;6.30;99.90
45643;DHT22;31358;46.008;11.144;2022-12-29T14:36:33;6.30;99.90
45643;DHT22;31358;46.008;11.144;2022-12-29T14:38:59;6.30;99.90
45643;DHT22;31358;46.008;11.144;2022-12-29T14:41:40;6.30;99.90
45643;DHT22;31358;46.008;11.144;2022-12-29T14:49:22;6.20;99.90
45643;DHT22;31358;46.008;11.144;2022-12-29T14:51:51;6.20;99.90
45643;DHT22;31358;46.008;11.144;2022-12-29T14:57:04;6.10;99.90
45643;DHT22;31358;46.008;11.144;2022-12-29T14:59:32;6.10;99.90
45643;DHT22;31358;46.008;11.144;2022-12-29T15:02:00;6.10;99.90
45643;DHT22;31358;46.008;11.144;2022-12-29T15:04:33;6.10;99.90
45643;DHT22;31358;46.008;11.144;2022-12-29T15:07:01;6.10;99.90
45643;DHT22;31358;46.008;11.144;2022-12-29T15:09:47;6.10;99.90
45643;DHT22;31358;46.008;11.144;2022-12-29T15:14:52;5.90;99.90
45643;DHT22;31358;46.008;11.144;2022-12-29T15:19:56;5.80;99.90
45643;DHT22;31358;46.008;11.144;2022-12-29T15:22:22;5.70;99.90
45643;DHT22;31358;46.008;11.144;2022-12-29T15:24:51;5.60;99.90
45643;DHT22;31358;46.008;11.144;2022-12-29T15:27:21;5.70;99.90
45643;DHT22;31358;46.008;11.144;2022-12-29T15:29:50;5.70;99.90
45643;DHT22;31358;46.008;11.144;2022-12-29T15:32:23;5.60;99.90
45643;DHT22;31358;46.008;11.144;2022-12-29T15:34:52;5.50;99.90
45643;DHT22;31358;46.008;11.144;2022-12-29T15:37:33;5.40;99.90
45643;DHT22;31358;46.008;11.144;2022-12-29T15:40:01;5.40;99.90
45643;DHT22;31358;46.008;11.144;2022-12-29T15:45:13;5.50;99.90
45643;DHT22;31358;46.008;11.144;2022-12-29T15:47:42;5.50;99.90
45643;DHT22;31358;46.008;11.144;2022-12-29T15:50:24;5.50;99.90
45643;DHT22;31358;46.008;11.144;2022-12-29T15:52:51;5.20;99.90
45643;DHT22;31358;46.008;11.144;2022-12-29T15:55:43;5.10;99.90
45643;DHT22;31358;46.008;11.144;2022-12-29T15:58:23;5.00;99.90
45643;DHT22;31358;46.008;11.144;2022-12-29T16:00:52;5.00;99.90
45643;DHT22;31358;46.008;11.144;2022-12-29T16:03:19;5.00;99.90
45643;DHT22;31358;46.008;11.144;2022-12-29T16:08:56;5.00;99.90
45643;DHT22;31358;46.008;11.144;2022-12-29T16:11:35;4.90;99.90
45643;DHT22;31358;46.008;11.144;2022-12-29T16:14:05;5.00;99.90
45643;DHT22;31358;46.008;11.144;2022-12-29T16:16:37;5.10;99.90
45643;DHT22;31358;46.008;11.144;2022-12-29T16:21:51;4.80;99.90
45643;DHT22;31358;46.008;11.144;2022-12-29T16:24:24;5.00;99.90
45643;DHT22;31358;46.008;11.144;2022-12-29T16:29:23;5.10;99.90
45643;DHT22;31358;46.008;11.144;2022-12-29T16:34:32;5.00;99.90
45643;DHT22;31358;46.008;11.144;2022-12-29T16:39:46;4.80;99.90
45643;DHT22;31358;46.008;11.144;2022-12-29T16:51:15;4.90;99.90
45643;DHT22;31358;46.008;11.144;2022-12-29T16:53:51;4.90;99.90
45643;DHT22;31358;46.008;11.144;2022-12-29T16:56:23;4.90;99.90
45643;DHT22;31358;46.008;11.144;2022-12-29T17:01:24;4.80;99.90
45643;DHT22;31358;46.008;11.144;2022-12-29T17:04:01;4.80;99.90
45643;DHT22;31358;46.008;11.144;2022-12-29T17:06:30;4.80;99.90
45643;DHT22;31358;46.008;11.144;2022-12-29T17:08:56;4.90;99.90
45643;DHT22;31358;46.008;11.144;2022-12-29T17:16:46;4.70;99.90
45643;DHT22;31358;46.008;11.144;2022-12-29T17:19:30;4.70;99.90
45643;DHT22;31358;46.008;11.144;2022-12-29T17:21:56;4.80;99.90
45643;DHT22;31358;46.008;11.144;2022-12-29T17:24:22;4.70;99.90
45643;DHT22;31358;46.008;11.144;2022-12-29T17:26:50;4.70;99.90
45643;DHT22;31358;46.008;11.144;2022-12-29T17:29:21;4.80;99.90
45643;DHT22;31358;46.008;11.144;2022-12-29T17:31:50;4.70;99.90
45643;DHT22;31358;46.008;11.144;2022-12-29T17:34:17;4.60;99.90
45643;DHT22;31358;46.008;11.144;2022-12-29T17:36:42;4.60;99.90
45643;DHT22;31358;46.008;11.144;2022-12-29T17:39:09;4.70;99.90
45643;DHT22;31358;46.008;11.144;2022-12-29T17:41:36;4.90;99.90
45643;DHT22;31358;46.008;11.144;2022-12-29T17:44:02;4.80;99.90
45643;DHT22;31358;46.008;11.144;2022-12-29T17:46:27;4.90;99.90
45643;DHT22;31358;46.008;11.144;2022-12-29T17:48:53;5.00;99.90
45643;DHT22;31358;46.008;11.144;2022-12-29T17:51:20;4.90;99.90
45643;DHT22;31358;46.008;11.144;2022-12-29T17:53:46;4.90;99.90
45643;DHT22;31358;46.008;11.144;2022-12-29T17:56:11;4.90;99.90
45643;DHT22;31358;46.008;11.144;2022-12-29T17:58:37;4.80;99.90
45643;DHT22;31358;46.008;11.144;2022-12-29T18:01:03;4.70;99.90
45643;DHT22;31358;46.008;11.144;2022-12-29T18:03:31;4.60;99.90
45643;DHT22;31358;46.008;11.144;2022-12-29T18:05:57;4.60;99.90
45643;DHT22;31358;46.008;11.144;2022-12-29T18:08:23;4.60;99.90
45643;DHT22;31358;46.008;11.144;2022-12-29T18:10:53;4.60;99.90
45643;DHT22;31358;46.008;11.144;2022-12-29T18:13:24;4.70;99.90
45643;DHT22;31358;46.008;11.144;2022-12-29T18:15:51;4.80;99.90
45643;DHT22;31358;46.008;11.144;2022-12-29T18:18:23;4.80;99.90
45643;DHT22;31358;46.008;11.144;2022-12-29T18:20:50;4.90;99.90
45643;DHT22;31358;46.008;11.144;2022-12-29T18:23:28;4.80;99.90
45643;DHT22;31358;46.008;11.144;2022-12-29T18:26:03;4.80;99.90
45643;DHT22;31358;46.008;11.144;2022-12-29T18:28:30;4.70;99.90
45643;DHT22;31358;46.008;11.144;2022-12-29T18:30:57;4.70;99.90
45643;DHT22;31358;46.008;11.144;2022-12-29T18:33:24;4.80;99.90
45643;DHT22;31358;46.008;11.144;2022-12-29T18:35:58;4.70;99.90
45643;DHT22;31358;46.008;11.144;2022-12-29T18:38:24;4.80;99.90
45643;DHT22;31358;46.008;11.144;2022-12-29T18:40:51;5.00;99.90
45643;DHT22;31358;46.008;11.144;2022-12-29T18:43:17;4.90;99.90
45643;DHT22;31358;46.008;11.144;2022-12-29T18:45:44;5.00;99.90
45643;DHT22;31358;46.008;11.144;2022-12-29T18:48:14;4.90;99.90
45643;DHT22;31358;46.008;11.144;2022-12-29T18:50:40;5.00;99.90
45643;DHT22;31358;46.008;11.144;2022-12-29T18:53:05;4.90;99.90
45643;DHT22;31358;46.008;11.144;2022-12-29T18:55:31;4.90;99.90